Terminal Aerodrome Forecast
Issued by NWS

Current Version | Previous Version | Graphics & Text | Print | Product List | Glossary On
Versions: 1 2 3 4 5 6 7 8 9 10 11 12 13 14 15 16 17 18 19 20 21 22 23 24 25 26 27 28 29
000
FTUS41 KRLX 181120
TAFCKB
TAF
KCKB 181120Z 1812/1912 19004KT 6SM -SHRA OVC090
     FM181400 20011KT 5SM -SHRA OVC040
     FM181700 20012G24KT P6SM OVC045
     FM182100 21015G30KT P6SM OVC045
     FM190000 20013G21KT 4SM -SHRA OVC045
     FM190400 24015G28KT 3SM -SHRA OVC020
     FM190600 26016G31KT 3SM -SHRA OVC015=

USA.gov is the U.S. government's official web portal to all federal, state and local government web resources and services.